createdAt,value
2023-02-26T00:00:52.361Z,73.36
2023-02-26T00:03:18.625Z,73.43
2023-02-26T00:05:44.880Z,72.89
2023-02-26T00:08:11.144Z,72.46
2023-02-26T00:10:37.393Z,71.99
2023-02-26T00:13:16.119Z,71.85
2023-02-26T00:15:50.051Z,70.39
2023-02-26T00:18:30.674Z,69.49
2023-02-26T00:20:57.218Z,68.71
2023-02-26T00:23:23.480Z,68.98
2023-02-26T00:25:49.722Z,68.91
2023-02-26T00:28:16.026Z,68.72
2023-02-26T00:30:42.275Z,68.91
2023-02-26T00:33:08.675Z,68.89
2023-02-26T00:35:35.161Z,68.37
2023-02-26T00:38:01.488Z,68.29
2023-02-26T00:40:27.772Z,68.64
2023-02-26T00:42:54.096Z,69.56
2023-02-26T00:45:20.318Z,69.65
2023-02-26T00:47:46.631Z,70.00
2023-02-26T00:50:12.871Z,69.70
2023-02-26T00:52:39.120Z,69.83
2023-02-26T00:55:05.412Z,69.28
2023-02-26T00:57:31.732Z,69.12
2023-02-26T00:59:57.976Z,69.35
2023-02-26T01:02:24.218Z,69.25
2023-02-26T01:04:50.452Z,69.28
2023-02-26T01:07:16.705Z,69.70
2023-02-26T01:09:43.000Z,70.26
2023-02-26T01:12:09.236Z,72.57
2023-02-26T01:14:35.467Z,73.70
2023-02-26T01:17:01.728Z,73.71
2023-02-26T01:19:27.996Z,73.13
2023-02-26T01:21:54.345Z,72.88
2023-02-26T01:24:20.604Z,72.66
2023-02-26T01:26:46.863Z,71.66
2023-02-26T01:29:13.108Z,72.02
2023-02-26T01:31:39.444Z,71.57
2023-02-26T01:34:05.845Z,71.45
2023-02-26T01:36:32.123Z,70.87
2023-02-26T01:38:58.357Z,70.16
2023-02-26T01:41:24.704Z,70.32
2023-02-26T01:43:51.135Z,70.60
2023-02-26T01:46:17.646Z,70.46
2023-02-26T01:48:43.988Z,70.50
2023-02-26T01:51:10.239Z,69.95
2023-02-26T01:53:36.498Z,69.96
2023-02-26T01:56:02.734Z,70.14
2023-02-26T01:58:28.986Z,69.85
2023-02-26T02:00:55.245Z,69.71
2023-02-26T02:03:21.582Z,69.30
2023-02-26T02:05:47.891Z,69.17
2023-02-26T02:08:14.284Z,69.10
2023-02-26T02:10:40.564Z,69.68
2023-02-26T02:13:06.817Z,69.78
2023-02-26T02:15:33.057Z,69.64
2023-02-26T02:17:59.306Z,69.67
2023-02-26T02:20:25.558Z,69.72
2023-02-26T02:22:51.789Z,69.47
2023-02-26T02:25:18.047Z,69.27
2023-02-26T02:27:44.389Z,69.26
2023-02-26T02:30:10.638Z,69.27
2023-02-26T02:32:36.989Z,69.94
2023-02-26T02:35:03.351Z,70.11
2023-02-26T02:37:29.601Z,69.91
2023-02-26T02:39:55.897Z,69.86
2023-02-26T02:42:22.137Z,70.24
2023-02-26T02:44:48.374Z,70.48
2023-02-26T02:47:14.613Z,70.35
2023-02-26T02:49:40.869Z,70.18
2023-02-26T02:52:07.102Z,70.70
2023-02-26T02:54:33.352Z,71.11
2023-02-26T02:56:59.601Z,71.44
2023-02-26T02:59:25.854Z,70.92
2023-02-26T03:01:52.123Z,70.91
2023-02-26T03:04:18.419Z,71.15
2023-02-26T03:06:44.662Z,72.29
2023-02-26T03:09:10.923Z,72.89
2023-02-26T03:11:37.273Z,73.01
2023-02-26T03:14:03.507Z,72.97
2023-02-26T03:16:29.819Z,72.59
2023-02-26T03:18:56.212Z,72.48
2023-02-26T03:21:22.536Z,72.43
2023-02-26T03:23:48.809Z,72.28
2023-02-26T03:26:15.058Z,71.95
2023-02-26T03:28:41.288Z,71.88
2023-02-26T03:31:07.581Z,71.71
2023-02-26T03:33:33.824Z,71.86
2023-02-26T03:36:00.108Z,71.58
2023-02-26T03:38:26.368Z,71.55
2023-02-26T03:40:52.609Z,71.62
2023-02-26T03:43:18.909Z,70.85
2023-02-26T03:45:45.229Z,69.96
2023-02-26T03:48:11.495Z,70.46
2023-02-26T03:50:37.742Z,69.91
2023-02-26T03:53:03.989Z,69.84
2023-02-26T03:55:30.242Z,69.83
2023-02-26T03:57:56.563Z,69.64
2023-02-26T04:00:22.896Z,69.70
2023-02-26T04:02:49.160Z,69.35
2023-02-26T04:05:15.460Z,69.42
2023-02-26T04:07:41.728Z,69.59
2023-02-26T04:10:07.983Z,70.00
2023-02-26T04:12:34.216Z,70.25
2023-02-26T04:15:00.453Z,70.05
2023-02-26T04:17:26.708Z,70.87
2023-02-26T04:19:52.983Z,70.94
2023-02-26T04:22:19.235Z,70.44
2023-02-26T04:24:45.488Z,71.32
2023-02-26T04:27:11.757Z,71.32
2023-02-26T04:29:38.005Z,71.17
2023-02-26T04:32:04.340Z,71.22
2023-02-26T04:34:30.705Z,72.07
2023-02-26T04:36:56.995Z,73.28
2023-02-26T04:39:23.225Z,72.70
2023-02-26T04:41:49.510Z,72.36
2023-02-26T04:44:15.773Z,72.51
2023-02-26T04:46:42.027Z,72.36
2023-02-26T04:49:08.346Z,72.32
2023-02-26T04:51:34.625Z,73.15
2023-02-26T04:54:00.915Z,74.33
2023-02-26T04:56:27.446Z,75.07
2023-02-26T04:58:53.846Z,75.44
2023-02-26T05:01:20.160Z,75.19
2023-02-26T05:03:46.424Z,75.63
2023-02-26T05:06:12.670Z,75.66
2023-02-26T05:08:38.917Z,74.75
2023-02-26T05:11:05.156Z,72.57
2023-02-26T05:13:31.387Z,69.43
2023-02-26T05:15:57.699Z,68.92
2023-02-26T05:18:23.977Z,68.23
2023-02-26T05:20:50.247Z,67.68
2023-02-26T05:23:16.595Z,66.80
2023-02-26T05:25:43.306Z,66.77
2023-02-26T05:28:09.577Z,65.98
2023-02-26T05:30:35.874Z,66.35
2023-02-26T05:33:02.156Z,66.27
2023-02-26T05:35:28.389Z,66.09
2023-02-26T05:37:54.659Z,66.03
2023-02-26T05:40:20.941Z,66.67
2023-02-26T05:42:47.198Z,66.75
2023-02-26T05:45:13.488Z,66.57
2023-02-26T05:47:39.768Z,63.96
2023-02-26T05:50:05.992Z,65.62
2023-02-26T05:52:32.253Z,66.71
2023-02-26T05:54:58.676Z,67.20
2023-02-26T05:57:24.914Z,69.62
2023-02-26T05:59:51.170Z,70.53
2023-02-26T06:02:17.529Z,68.37
2023-02-26T06:04:43.835Z,67.41
2023-02-26T06:07:10.118Z,66.38
2023-02-26T06:09:36.407Z,66.58
2023-02-26T06:12:02.673Z,66.76
2023-02-26T06:14:28.931Z,66.36
2023-02-26T06:16:55.206Z,65.83
2023-02-26T06:19:21.498Z,64.88
2023-02-26T06:21:47.774Z,64.07
2023-02-26T06:24:14.066Z,63.84
2023-02-26T06:26:40.320Z,63.03
2023-02-26T06:29:06.608Z,62.62
2023-02-26T06:31:33.016Z,62.36
2023-02-26T06:33:59.279Z,61.53
2023-02-26T06:36:25.729Z,62.32
2023-02-26T06:38:52.167Z,61.48
2023-02-26T06:41:18.430Z,63.30
2023-02-26T06:43:44.666Z,62.86
2023-02-26T06:46:10.952Z,62.46
2023-02-26T06:48:37.316Z,62.31
2023-02-26T06:51:03.610Z,62.08
2023-02-26T06:53:29.947Z,61.46
2023-02-26T06:55:56.227Z,61.42
2023-02-26T06:58:22.457Z,61.26
2023-02-26T07:00:48.763Z,59.66
2023-02-26T07:03:15.059Z,59.60
2023-02-26T07:05:41.370Z,59.41
2023-02-26T07:08:07.665Z,59.23
2023-02-26T07:10:33.912Z,59.74
2023-02-26T07:13:00.152Z,59.68
2023-02-26T07:15:26.425Z,59.73
2023-02-26T07:17:52.663Z,59.98
2023-02-26T07:20:18.898Z,59.90
2023-02-26T07:22:45.146Z,59.98
2023-02-26T07:25:11.372Z,59.87
2023-02-26T07:27:37.635Z,59.96
2023-02-26T07:30:03.889Z,62.04
2023-02-26T07:32:30.186Z,62.14
2023-02-26T07:34:56.538Z,63.86
2023-02-26T07:37:22.799Z,63.56
2023-02-26T07:39:49.060Z,63.31
2023-02-26T07:42:15.290Z,62.35
2023-02-26T07:44:41.576Z,60.84
2023-02-26T07:47:07.871Z,59.74
2023-02-26T07:49:34.124Z,58.73
2023-02-26T07:52:00.490Z,59.57
2023-02-26T07:54:26.805Z,59.73
2023-02-26T07:56:53.047Z,58.60
2023-02-26T07:59:19.324Z,57.06
2023-02-26T08:01:45.723Z,56.98
2023-02-26T08:04:12.046Z,55.35
2023-02-26T08:06:38.371Z,55.18
2023-02-26T08:09:04.614Z,53.94
2023-02-26T08:11:30.875Z,54.37
2023-02-26T08:13:57.111Z,53.50
2023-02-26T08:16:23.819Z,53.60
2023-02-26T08:18:50.384Z,53.71
2023-02-26T08:21:16.604Z,52.30
2023-02-26T08:23:42.870Z,52.59
2023-02-26T08:26:09.530Z,53.72
2023-02-26T08:28:35.801Z,54.27
2023-02-26T08:31:02.150Z,54.20
2023-02-26T08:33:28.466Z,54.26
2023-02-26T08:35:54.742Z,53.49
2023-02-26T08:38:21.044Z,53.28
2023-02-26T08:40:47.289Z,50.99
2023-02-26T08:43:13.583Z,51.88
2023-02-26T08:45:39.907Z,50.44
2023-02-26T08:48:06.152Z,50.88
2023-02-26T08:50:32.482Z,50.85
2023-02-26T08:52:58.756Z,49.74
2023-02-26T08:55:25.015Z,49.72
2023-02-26T08:57:51.259Z,49.33
2023-02-26T09:00:17.507Z,49.46
2023-02-26T09:02:43.874Z,49.73
2023-02-26T09:05:10.256Z,49.03
2023-02-26T09:07:36.579Z,50.29
2023-02-26T09:10:02.840Z,50.03
2023-02-26T09:12:29.116Z,49.60
2023-02-26T09:14:55.391Z,50.31
2023-02-26T09:17:21.655Z,51.62
2023-02-26T09:19:48.004Z,52.07
2023-02-26T09:22:14.261Z,51.92
2023-02-26T09:24:40.557Z,52.17
2023-02-26T09:27:06.820Z,52.21
2023-02-26T09:29:33.087Z,52.54
2023-02-26T09:31:59.424Z,53.11
2023-02-26T09:34:25.756Z,52.59
2023-02-26T09:36:52.026Z,53.18
2023-02-26T09:39:18.295Z,52.77
2023-02-26T09:41:44.534Z,53.01
2023-02-26T09:44:10.790Z,53.50
2023-02-26T09:46:37.106Z,53.73
2023-02-26T09:49:03.356Z,54.30
2023-02-26T09:51:29.650Z,53.99
2023-02-26T09:53:55.988Z,54.22
2023-02-26T09:56:22.235Z,53.41
2023-02-26T09:58:48.672Z,53.31
2023-02-26T10:01:15.041Z,52.85
2023-02-26T10:03:41.324Z,52.19
2023-02-26T10:06:07.613Z,51.69
2023-02-26T10:08:33.852Z,51.12
2023-02-26T10:11:00.130Z,50.86
2023-02-26T10:13:26.420Z,50.76
2023-02-26T10:15:52.718Z,49.08
2023-02-26T10:18:18.975Z,49.15
2023-02-26T10:20:45.389Z,47.79
2023-02-26T10:23:11.692Z,48.01
2023-02-26T10:25:37.950Z,48.10
2023-02-26T10:28:04.249Z,47.04
2023-02-26T10:30:30.606Z,47.10
2023-02-26T10:32:56.928Z,46.83
2023-02-26T10:35:23.236Z,46.70
2023-02-26T10:37:49.553Z,45.64
2023-02-26T10:40:15.780Z,46.24
2023-02-26T10:42:42.068Z,45.64
2023-02-26T10:45:08.386Z,47.08
2023-02-26T10:47:34.645Z,47.50
2023-02-26T10:50:00.882Z,45.25
2023-02-26T10:52:27.145Z,46.80
2023-02-26T10:54:53.401Z,44.98
2023-02-26T10:57:19.636Z,45.75
2023-02-26T10:59:45.916Z,45.04
2023-02-26T11:02:12.204Z,45.99
2023-02-26T11:04:38.481Z,44.79
2023-02-26T11:07:04.740Z,45.26
2023-02-26T11:09:31.009Z,45.72
2023-02-26T11:11:57.245Z,46.14
2023-02-26T11:14:26.189Z,45.81
2023-02-26T11:16:53.127Z,46.46
2023-02-26T11:19:19.362Z,46.56
2023-02-26T11:21:45.653Z,48.60
2023-02-26T11:24:11.943Z,48.64
2023-02-26T11:26:38.242Z,48.15
2023-02-26T11:29:06.393Z,48.84
2023-02-26T11:31:32.761Z,49.30
2023-02-26T11:33:59.211Z,48.58
2023-02-26T11:36:25.822Z,48.87
2023-02-26T11:38:52.252Z,46.60
2023-02-26T11:41:18.510Z,45.24
2023-02-26T11:43:45.261Z,45.14
2023-02-26T11:46:11.608Z,43.46
2023-02-26T11:48:37.872Z,43.07
2023-02-26T11:51:04.153Z,42.61
2023-02-26T11:53:30.417Z,43.22
2023-02-26T11:55:56.640Z,43.63
2023-02-26T11:58:22.923Z,43.51
2023-02-26T12:00:49.230Z,41.67
2023-02-26T12:03:15.464Z,42.42
2023-02-26T12:05:41.739Z,42.05
2023-02-26T12:08:08.033Z,42.09
2023-02-26T12:10:34.269Z,41.71
2023-02-26T12:13:00.496Z,41.25
2023-02-26T12:15:26.823Z,41.69
2023-02-26T12:17:53.311Z,40.90
2023-02-26T12:20:19.867Z,42.46
2023-02-26T12:22:46.313Z,42.46
2023-02-26T12:25:12.577Z,42.35
2023-02-26T12:27:38.846Z,42.78
2023-02-26T12:30:05.079Z,43.11
2023-02-26T12:32:31.324Z,44.36
2023-02-26T12:34:57.663Z,44.10
2023-02-26T12:37:23.929Z,41.74
2023-02-26T12:39:50.164Z,39.87
2023-02-26T12:42:16.467Z,40.63
2023-02-26T12:44:42.785Z,40.10
2023-02-26T12:47:09.056Z,39.96
2023-02-26T12:49:35.336Z,40.58
2023-02-26T12:52:01.641Z,42.45
2023-02-26T12:54:28.669Z,40.97
2023-02-26T12:56:54.941Z,40.39
2023-02-26T12:59:21.226Z,42.21
2023-02-26T13:02:00.541Z,41.38
2023-02-26T13:04:30.738Z,42.62
2023-02-26T13:06:56.959Z,42.64
2023-02-26T13:09:23.185Z,41.56
2023-02-26T13:11:49.540Z,41.98
2023-02-26T13:14:15.764Z,42.33
2023-02-26T13:16:42.013Z,40.55
2023-02-26T13:19:08.316Z,39.67
2023-02-26T13:21:34.655Z,39.59
2023-02-26T13:24:00.886Z,38.88
2023-02-26T13:26:27.155Z,38.71
2023-02-26T13:28:53.453Z,38.07
2023-02-26T13:31:19.743Z,37.98
2023-02-26T13:33:46.040Z,40.39
2023-02-26T13:36:12.310Z,42.44
2023-02-26T13:38:38.534Z,41.58
2023-02-26T13:41:04.782Z,40.15
2023-02-26T13:43:32.826Z,40.19
2023-02-26T13:45:59.222Z,40.15
2023-02-26T13:48:25.482Z,40.12
2023-02-26T13:50:51.753Z,39.85
2023-02-26T13:53:18.072Z,38.97
2023-02-26T13:55:44.308Z,39.36
2023-02-26T13:58:10.591Z,38.48
2023-02-26T14:00:36.898Z,38.46
2023-02-26T14:03:03.198Z,39.20
2023-02-26T14:05:29.930Z,40.15
2023-02-26T14:07:56.248Z,41.29
2023-02-26T14:10:22.497Z,42.05
2023-02-26T14:12:48.762Z,41.26
2023-02-26T14:15:15.047Z,40.71
2023-02-26T14:17:41.306Z,42.20
2023-02-26T14:20:07.596Z,42.15
2023-02-26T14:22:33.924Z,42.75
2023-02-26T14:25:00.165Z,42.26
2023-02-26T14:27:26.390Z,40.97
2023-02-26T14:29:52.680Z,41.26
2023-02-26T14:32:19.073Z,41.05
2023-02-26T14:34:45.431Z,41.70
2023-02-26T14:37:11.716Z,41.92
2023-02-26T14:39:38.021Z,42.16
2023-02-26T14:42:04.260Z,40.07
2023-02-26T14:44:30.523Z,41.67
2023-02-26T14:46:56.770Z,41.20
2023-02-26T14:49:23.028Z,39.41
2023-02-26T14:51:49.332Z,38.95
2023-02-26T14:54:15.625Z,39.39
2023-02-26T14:56:41.893Z,40.68
2023-02-26T14:59:08.136Z,41.57
2023-02-26T15:01:34.693Z,40.67
2023-02-26T15:04:01.141Z,39.86
2023-02-26T15:06:27.415Z,39.89
2023-02-26T15:08:53.658Z,37.87
2023-02-26T15:11:19.904Z,38.70
2023-02-26T15:13:46.172Z,38.21
2023-02-26T15:16:12.591Z,41.75
2023-02-26T15:18:38.897Z,43.36
2023-02-26T15:21:05.187Z,44.63
2023-02-26T15:23:31.502Z,45.27
2023-02-26T15:25:57.778Z,46.61
2023-02-26T15:28:24.032Z,46.21
2023-02-26T15:30:51.796Z,46.68
2023-02-26T15:33:18.081Z,46.97
2023-02-26T15:35:44.354Z,46.89
2023-02-26T15:38:10.665Z,48.10
2023-02-26T15:40:36.937Z,49.14
2023-02-26T15:43:03.230Z,49.88
2023-02-26T15:45:29.519Z,49.75
2023-02-26T15:47:55.782Z,50.11
2023-02-26T15:50:22.026Z,48.46
2023-02-26T15:52:48.320Z,49.05
2023-02-26T15:55:14.624Z,47.29
2023-02-26T15:57:40.900Z,47.37
2023-02-26T16:00:07.215Z,48.48
2023-02-26T16:02:33.554Z,50.23
2023-02-26T16:04:59.833Z,49.77
2023-02-26T16:07:26.169Z,50.36
2023-02-26T16:09:52.487Z,50.18
2023-02-26T16:12:18.760Z,49.65
2023-02-26T16:14:44.999Z,49.38
2023-02-26T16:17:11.256Z,49.05
2023-02-26T16:19:37.584Z,48.57
2023-02-26T16:22:03.890Z,48.81
2023-02-26T16:24:30.148Z,48.64
2023-02-26T16:26:56.417Z,48.22
2023-02-26T16:29:22.862Z,48.89
2023-02-26T16:31:49.327Z,49.15
2023-02-26T16:34:15.717Z,48.67
2023-02-26T16:36:41.991Z,48.52
2023-02-26T16:39:08.319Z,49.23
2023-02-26T16:41:34.578Z,49.16
2023-02-26T16:44:00.877Z,49.41
2023-02-26T16:46:27.181Z,49.52
2023-02-26T16:48:53.450Z,49.46
2023-02-26T16:51:19.686Z,50.17
2023-02-26T16:53:45.976Z,50.86
2023-02-26T16:56:12.242Z,50.65
2023-02-26T16:58:38.498Z,50.74
2023-02-26T17:01:04.744Z,50.91
2023-02-26T17:03:30.988Z,51.40
2023-02-26T17:05:57.273Z,52.35
2023-02-26T17:08:23.646Z,51.96
2023-02-26T17:10:50.188Z,51.73
2023-02-26T17:13:16.448Z,51.34
2023-02-26T17:15:42.732Z,51.44
2023-02-26T17:18:09.049Z,51.93
2023-02-26T17:20:35.656Z,51.59
2023-02-26T17:23:01.913Z,51.65
2023-02-26T17:25:28.157Z,51.34
2023-02-26T17:27:54.548Z,51.63
2023-02-26T17:30:20.812Z,51.46
2023-02-26T17:32:47.167Z,51.23
2023-02-26T17:35:13.494Z,50.81
2023-02-26T17:37:39.734Z,50.31
2023-02-26T17:40:05.990Z,49.47
2023-02-26T17:42:32.287Z,48.78
2023-02-26T17:44:58.558Z,48.90
2023-02-26T17:47:24.797Z,49.22
2023-02-26T17:49:51.028Z,49.08
2023-02-26T17:52:17.320Z,49.98
2023-02-26T17:54:43.618Z,49.90
2023-02-26T17:57:09.900Z,50.03
2023-02-26T17:59:36.171Z,49.71
2023-02-26T18:02:02.463Z,49.45
2023-02-26T18:04:28.805Z,49.38
2023-02-26T18:06:55.111Z,49.49
2023-02-26T18:09:21.395Z,49.99
2023-02-26T18:11:47.702Z,49.06
2023-02-26T18:14:13.934Z,49.28
2023-02-26T18:16:40.340Z,49.33
2023-02-26T18:19:06.669Z,49.02
2023-02-26T18:21:32.980Z,48.50
2023-02-26T18:23:59.236Z,48.83
2023-02-26T18:26:25.488Z,48.95
2023-02-26T18:28:51.803Z,48.76
2023-02-26T18:31:20.031Z,48.47
2023-02-26T18:33:46.440Z,48.47
2023-02-26T18:36:12.726Z,48.41
2023-02-26T18:38:39.047Z,48.20
2023-02-26T18:41:05.312Z,48.54
2023-02-26T18:43:31.596Z,48.52
2023-02-26T18:45:57.913Z,49.11
2023-02-26T18:48:24.174Z,49.06
2023-02-26T18:50:52.383Z,49.41
2023-02-26T18:53:18.701Z,49.50
2023-02-26T18:55:44.979Z,49.45
2023-02-26T18:58:11.275Z,49.48
2023-02-26T19:00:37.598Z,50.28
2023-02-26T19:03:03.838Z,50.45
2023-02-26T19:05:30.249Z,50.39
2023-02-26T19:07:56.542Z,50.41
2023-02-26T19:10:22.787Z,50.43
2023-02-26T19:12:49.055Z,49.46
2023-02-26T19:15:15.349Z,50.03
2023-02-26T19:17:41.607Z,50.01
2023-02-26T19:20:07.889Z,50.12
2023-02-26T19:22:34.159Z,50.17
2023-02-26T19:25:00.417Z,51.48
2023-02-26T19:27:26.718Z,51.54
2023-02-26T19:29:52.990Z,51.47
2023-02-26T19:32:19.395Z,51.15
2023-02-26T19:34:45.728Z,50.85
2023-02-26T19:37:12.092Z,50.63
2023-02-26T19:39:38.304Z,50.78
2023-02-26T19:42:04.584Z,50.63
2023-02-26T19:44:30.989Z,50.25
2023-02-26T19:46:57.413Z,50.25
2023-02-26T19:49:23.815Z,50.54
2023-02-26T19:51:50.194Z,50.57
2023-02-26T19:54:16.433Z,51.00
2023-02-26T19:56:42.735Z,51.63
2023-02-26T19:59:09.029Z,51.50
2023-02-26T20:01:35.316Z,52.15
2023-02-26T20:04:01.595Z,52.16
2023-02-26T20:06:27.856Z,52.43
2023-02-26T20:08:54.096Z,51.96
2023-02-26T20:11:20.384Z,52.33
2023-02-26T20:13:46.680Z,52.81
2023-02-26T20:16:13.000Z,53.56
2023-02-26T20:18:42.859Z,52.38
2023-02-26T20:21:09.154Z,52.19
2023-02-26T20:23:35.435Z,52.45
2023-02-26T20:26:01.680Z,52.89
2023-02-26T20:28:27.975Z,53.89
2023-02-26T20:30:54.340Z,53.43
2023-02-26T20:33:20.694Z,53.34
2023-02-26T20:35:47.059Z,53.00
2023-02-26T20:38:13.301Z,53.51
2023-02-26T20:40:39.531Z,53.64
2023-02-26T20:43:05.784Z,53.79
2023-02-26T20:45:32.054Z,54.35
2023-02-26T20:47:58.287Z,53.99
2023-02-26T20:50:24.579Z,53.74
2023-02-26T20:52:50.844Z,53.29
2023-02-26T20:55:18.067Z,52.48
2023-02-26T20:57:45.161Z,52.62
2023-02-26T21:00:11.483Z,53.45
2023-02-26T21:02:37.801Z,54.00
2023-02-26T21:05:04.085Z,54.22
2023-02-26T21:07:30.378Z,54.49
2023-02-26T21:09:56.616Z,54.61
2023-02-26T21:12:22.907Z,54.53
2023-02-26T21:14:49.185Z,54.40
2023-02-26T21:17:15.490Z,53.92
2023-02-26T21:19:41.770Z,54.87
2023-02-26T21:22:08.057Z,55.10
2023-02-26T21:24:34.328Z,55.44
2023-02-26T21:27:00.575Z,55.59
2023-02-26T21:29:26.919Z,56.46
2023-02-26T21:31:53.378Z,56.14
2023-02-26T21:34:33.249Z,54.79
2023-02-26T21:36:59.941Z,54.99
2023-02-26T21:39:26.243Z,55.05
2023-02-26T21:41:52.495Z,55.29
2023-02-26T21:44:18.788Z,54.97
2023-02-26T21:46:45.096Z,54.55
2023-02-26T21:49:11.347Z,54.85
2023-02-26T21:51:37.598Z,55.02
2023-02-26T21:54:03.867Z,55.26
2023-02-26T21:56:30.118Z,55.60
2023-02-26T21:58:56.405Z,55.69
2023-02-26T22:01:22.684Z,56.19
2023-02-26T22:03:48.994Z,55.90
2023-02-26T22:06:15.295Z,53.26
2023-02-26T22:08:41.596Z,53.79
2023-02-26T22:11:07.865Z,52.61
2023-02-26T22:13:34.146Z,52.20
2023-02-26T22:16:00.434Z,52.27
2023-02-26T22:18:26.665Z,51.56
2023-02-26T22:20:52.920Z,50.52
2023-02-26T22:23:19.229Z,50.22
2023-02-26T22:25:45.458Z,50.01
2023-02-26T22:28:11.735Z,50.09
2023-02-26T22:30:38.037Z,49.09
2023-02-26T22:33:04.306Z,49.35
2023-02-26T22:35:30.610Z,49.66
2023-02-26T22:37:56.880Z,51.10
2023-02-26T22:40:23.129Z,52.15
2023-02-26T22:42:49.383Z,52.75
2023-02-26T22:45:15.642Z,52.73
2023-02-26T22:47:41.918Z,52.61
2023-02-26T22:50:08.174Z,52.50
2023-02-26T22:52:34.441Z,52.47
2023-02-26T22:55:00.742Z,52.25
2023-02-26T22:57:26.973Z,52.12
2023-02-26T22:59:53.254Z,52.11
2023-02-26T23:02:19.572Z,52.51
2023-02-26T23:04:45.827Z,51.77
2023-02-26T23:07:12.084Z,51.65
2023-02-26T23:09:38.349Z,51.66
2023-02-26T23:12:04.637Z,51.58
2023-02-26T23:14:30.845Z,50.86
2023-02-26T23:16:57.128Z,50.99
2023-02-26T23:19:23.433Z,51.65
2023-02-26T23:21:49.661Z,51.99
2023-02-26T23:24:15.899Z,51.97
2023-02-26T23:26:42.162Z,52.15
2023-02-26T23:29:08.393Z,51.18
2023-02-26T23:31:34.849Z,51.25
2023-02-26T23:34:01.232Z,51.04
2023-02-26T23:36:27.470Z,52.53
2023-02-26T23:38:53.724Z,52.66
2023-02-26T23:41:19.991Z,53.29
2023-02-26T23:43:46.265Z,52.90
2023-02-26T23:46:12.614Z,52.34
2023-02-26T23:48:38.945Z,52.10
2023-02-26T23:51:05.216Z,51.79
2023-02-26T23:53:31.457Z,51.72
2023-02-26T23:55:57.714Z,51.42
2023-02-26T23:58:23.967Z,52.17
